Time,TemperatureF,DewpointF,PressureIn,WindDirection,WindDirectionDegrees,WindSpeedMPH,WindSpeedGustMPH,Humidity,HourlyPrecipIn,Conditions,Clouds,dailyrainin,SoftwareType,DateUTC
2013-04-14 00:02:00,48.3,19.0,29.81,West,270,10.0,19.0,31,0.00,,,0.00,weatherlink.com 1.10,2013-04-14 07:02:00,
2013-04-14 00:17:00,47.7,16.0,29.81,NW,320,4.0,18.0,28,0.00,,,0.00,weatherlink.com 1.10,2013-04-14 07:17:00,
2013-04-14 00:32:00,46.7,8.0,29.81,West,271,7.0,12.0,21,0.00,,,0.00,weatherlink.com 1.10,2013-04-14 07:32:00,
2013-04-14 00:48:00,46.6,-1.0,29.80,WSW,250,10.0,14.0,14,0.00,,,0.00,weatherlink.com 1.10,2013-04-14 07:48:00,
2013-04-14 01:03:00,45.9,-4.0,29.80,WSW,250,5.0,11.0,12,0.00,,,0.00,weatherlink.com 1.10,2013-04-14 08:03:00,
2013-04-14 01:18:00,46.8,-12.0,29.80,WNW,293,10.0,18.0,8,0.00,,,0.00,weatherlink.com 1.10,2013-04-14 08:18:00,
2013-04-14 01:33:00,47.6,-17.0,29.79,West,263,9.0,22.0,6,0.00,,,0.00,weatherlink.com 1.10,2013-04-14 08:33:00,
2013-04-14 01:48:00,48.3,-20.0,29.78,West,263,3.0,20.0,5,0.00,,,0.00,weatherlink.com 1.10,2013-04-14 08:48:00,
2013-04-14 02:03:00,48.5,-24.0,29.77,WNW,290,4.0,19.0,4,0.00,,,0.00,weatherlink.com 1.10,2013-04-14 09:03:00,
2013-04-14 02:18:00,48.7,-20.0,29.77,West,279,15.0,19.0,5,0.00,,,0.00,weatherlink.com 1.10,2013-04-14 09:18:00,
2013-04-14 02:33:00,48.8,-8.0,29.77,WSW,258,5.0,18.0,9,0.00,,,0.00,weatherlink.com 1.10,2013-04-14 09:33:00,
2013-04-14 02:48:00,48.3,11.0,29.76,WNW,290,7.0,20.0,22,0.00,,,0.00,weatherlink.com 1.10,2013-04-14 09:48:00,
2013-04-14 03:03:00,48.2,25.0,29.76,West,269,9.0,19.0,40,0.00,,,0.00,weatherlink.com 1.10,2013-04-14 10:03:00,
2013-04-14 03:18:00,47.8,29.0,29.75,WNW,290,11.0,17.0,48,0.00,,,0.00,weatherlink.com 1.10,2013-04-14 10:18:00,
2013-04-14 03:33:00,48.1,29.0,29.74,West,273,6.0,21.0,48,0.00,,,0.00,weatherlink.com 1.10,2013-04-14 10:33:00,
2013-04-14 03:48:00,48.8,28.0,29.74,West,279,13.0,22.0,45,0.00,,,0.00,weatherlink.com 1.10,2013-04-14 10:48:00,
2013-04-14 04:03:00,48.8,28.0,29.73,WNW,284,13.0,23.0,44,0.00,,,0.00,weatherlink.com 1.10,2013-04-14 11:03:00,
2013-04-14 04:19:00,48.9,25.0,29.73,WNW,293,12.0,24.0,39,0.00,,,0.00,weatherlink.com 1.10,2013-04-14 11:19:00,
2013-04-14 04:34:00,48.5,28.0,29.73,West,267,11.0,22.0,45,0.00,,,0.00,weatherlink.com 1.10,2013-04-14 11:34:00,
2013-04-14 04:49:00,48.1,27.0,29.73,WNW,283,10.0,26.0,44,0.00,,,0.00,weatherlink.com 1.10,2013-04-14 11:49:00,
2013-04-14 05:04:00,48.5,21.0,29.73,West,261,10.0,21.0,34,0.00,,,0.00,weatherlink.com 1.10,2013-04-14 12:04:00,
2013-04-14 05:19:00,48.1,26.0,29.73,WNW,292,12.0,20.0,43,0.00,,,0.00,weatherlink.com 1.10,2013-04-14 12:19:00,
2013-04-14 05:34:00,47.1,26.0,29.72,WNW,286,14.0,16.0,44,0.00,,,0.00,weatherlink.com 1.10,2013-04-14 12:34:00,
2013-04-14 05:49:00,47.4,25.0,29.72,WNW,301,11.0,15.0,41,0.00,,,0.00,weatherlink.com 1.10,2013-04-14 12:49:00,
2013-04-14 06:04:00,47.2,24.0,29.72,WNW,292,8.0,18.0,40,0.00,,,0.00,weatherlink.com 1.10,2013-04-14 13:04:00,
2013-04-14 06:19:00,47.6,22.0,29.73,WNW,297,13.0,24.0,37,0.00,,,0.00,weatherlink.com 1.10,2013-04-14 13:19:00,
2013-04-14 06:34:00,47.4,22.0,29.73,West,278,11.0,16.0,37,0.00,,,0.00,weatherlink.com 1.10,2013-04-14 13:34:00,
2013-04-14 06:49:00,47.8,22.0,29.73,NW,316,10.0,17.0,36,0.00,,,0.00,weatherlink.com 1.10,2013-04-14 13:49:00,
2013-04-14 07:04:00,49.4,16.0,29.73,WSW,258,15.0,21.0,26,0.00,,,0.00,weatherlink.com 1.10,2013-04-14 14:04:00,
2013-04-14 07:19:00,50.7,18.0,29.74,WNW,283,9.0,19.0,27,0.00,,,0.00,weatherlink.com 1.10,2013-04-14 14:19:00,
2013-04-14 07:35:00,52.1,29.0,29.74,WNW,288,12.0,20.0,41,0.00,,,0.00,weatherlink.com 1.10,2013-04-14 14:35:00,
2013-04-14 07:50:00,52.2,28.0,29.74,WSW,251,11.0,21.0,40,0.00,,,0.00,weatherlink.com 1.10,2013-04-14 14:50:00,
2013-04-14 08:05:00,52.6,33.0,29.74,WNW,295,10.0,18.0,48,0.00,,,0.00,weatherlink.com 1.10,2013-04-14 15:05:00,
2013-04-14 08:20:00,53.7,36.0,29.74,WSW,247,13.0,17.0,51,0.00,,,0.00,weatherlink.com 1.10,2013-04-14 15:20:00,
2013-04-14 08:35:00,54.7,37.0,29.74,WNW,285,14.0,19.0,51,0.00,,,0.00,weatherlink.com 1.10,2013-04-14 15:35:00,
2013-04-14 08:50:00,55.3,37.0,29.73,WNW,296,7.0,18.0,50,0.00,,,0.00,weatherlink.com 1.10,2013-04-14 15:50:00,
2013-04-14 09:05:00,56.1,35.0,29.74,WSW,256,13.0,17.0,45,0.00,,,0.00,weatherlink.com 1.10,2013-04-14 16:05:00,
2013-04-14 09:20:00,56.1,36.0,29.73,West,278,8.0,21.0,47,0.00,,,0.00,weatherlink.com 1.10,2013-04-14 16:20:00,
2013-04-14 09:35:00,56.3,36.0,29.74,WNW,296,8.0,22.0,47,0.00,,,0.00,weatherlink.com 1.10,2013-04-14 16:35:00,
2013-04-14 10:05:00,56.9,37.0,29.74,West,281,9.0,18.0,47,0.00,,,0.00,weatherlink.com 1.10,2013-04-14 17:05:00,
2013-04-14 10:20:00,56.7,37.0,29.74,WNW,302,8.0,20.0,48,0.00,,,0.00,weatherlink.com 1.10,2013-04-14 17:20:00,
2013-04-14 10:35:00,57.5,39.0,29.75,West,277,16.0,20.0,50,0.00,,,0.00,weatherlink.com 1.10,2013-04-14 17:35:00,
2013-04-14 10:50:00,58.3,40.0,29.75,WNW,296,7.0,20.0,51,0.00,,,0.00,weatherlink.com 1.10,2013-04-14 17:50:00,
2013-04-14 11:06:00,59.4,39.0,29.74,WNW,291,16.0,22.0,47,0.00,,,0.00,weatherlink.com 1.10,2013-04-14 18:06:00,
2013-04-14 11:21:00,59.6,40.0,29.74,West,259,10.0,18.0,49,0.00,,,0.00,weatherlink.com 1.10,2013-04-14 18:21:00,
2013-04-14 11:36:00,59.7,40.0,29.74,West,261,14.0,18.0,48,0.00,,,0.00,weatherlink.com 1.10,2013-04-14 18:36:00,
2013-04-14 12:21:00,60.5,39.0,29.74,WSW,254,15.0,15.0,46,0.00,,,0.00,weatherlink.com 1.10,2013-04-14 19:21:00,
2013-04-14 12:36:00,61.3,41.0,29.73,SW,219,5.0,16.0,47,0.00,,,0.00,weatherlink.com 1.10,2013-04-14 19:36:00,
2013-04-14 12:51:00,62.6,40.0,29.73,WSW,252,4.0,14.0,43,0.00,,,0.00,weatherlink.com 1.10,2013-04-14 19:51:00,
2013-04-14 13:06:00,63.1,39.0,29.73,SW,227,6.0,17.0,42,0.00,,,0.00,weatherlink.com 1.10,2013-04-14 20:06:00,
2013-04-14 13:21:00,61.5,39.0,29.73,WNW,292,9.0,18.0,44,0.00,,,0.00,weatherlink.com 1.10,2013-04-14 20:21:00,
2013-04-14 14:06:00,62.8,39.0,29.73,WNW,292,10.0,18.0,42,0.00,,,0.00,weatherlink.com 1.10,2013-04-14 21:06:00,
2013-04-14 14:22:00,64.0,40.0,29.73,West,271,10.0,18.0,41,0.00,,,0.00,weatherlink.com 1.10,2013-04-14 21:22:00,
2013-04-14 14:37:00,63.2,37.0,29.72,WSW,240,16.0,20.0,38,0.00,,,0.00,weatherlink.com 1.10,2013-04-14 21:37:00,
2013-04-14 14:52:00,62.6,38.0,29.72,WNW,295,12.0,16.0,41,0.00,,,0.00,weatherlink.com 1.10,2013-04-14 21:52:00,
2013-04-14 15:07:00,62.3,36.0,29.72,WNW,282,10.0,18.0,38,0.00,,,0.00,weatherlink.com 1.10,2013-04-14 22:07:00,
2013-04-14 15:22:00,60.2,37.0,29.72,NW,304,12.0,24.0,42,0.00,,,0.00,weatherlink.com 1.10,2013-04-14 22:22:00,
2013-04-14 15:37:00,59.7,37.0,29.71,West,277,17.0,18.0,43,0.00,,,0.00,weatherlink.com 1.10,2013-04-14 22:37:00,
2013-04-14 15:52:00,59.6,38.0,29.71,NW,309,21.0,21.0,45,0.00,,,0.00,weatherlink.com 1.10,2013-04-14 22:52:00,
2013-04-14 16:07:00,59.1,40.0,29.71,West,276,10.0,22.0,49,0.00,,,0.00,weatherlink.com 1.10,2013-04-14 23:07:00,
2013-04-14 16:22:00,58.8,36.0,29.71,NW,306,7.0,21.0,43,0.00,,,0.00,weatherlink.com 1.10,2013-04-14 23:22:00,
2013-04-14 16:37:00,58.9,36.0,29.71,WNW,284,10.0,18.0,42,0.00,,,0.00,weatherlink.com 1.10,2013-04-14 23:37:00,
2013-04-14 16:52:00,58.3,37.0,29.71,NW,311,15.0,19.0,46,0.00,,,0.00,weatherlink.com 1.10,2013-04-14 23:52:00,
2013-04-14 17:07:00,58.1,35.0,29.70,West,271,5.0,19.0,43,0.00,,,0.00,weatherlink.com 1.10,2013-04-15 00:07:00,
2013-04-14 17:22:00,57.3,36.0,29.70,WSW,251,5.0,16.0,45,0.00,,,0.00,weatherlink.com 1.10,2013-04-15 00:22:00,
2013-04-14 17:37:00,55.9,36.0,29.71,West,263,4.0,19.0,48,0.00,,,0.00,weatherlink.com 1.10,2013-04-15 00:37:00,
2013-04-14 17:52:00,55.0,35.0,29.70,NW,307,6.0,19.0,48,0.00,,,0.00,weatherlink.com 1.10,2013-04-15 00:52:00,
2013-04-14 18:08:00,54.3,35.0,29.71,NW,315,11.0,15.0,48,0.00,,,0.00,weatherlink.com 1.10,2013-04-15 01:08:00,
2013-04-14 18:23:00,53.4,34.0,29.70,WNW,299,7.0,18.0,49,0.00,,,0.00,weatherlink.com 1.10,2013-04-15 01:23:00,
2013-04-14 18:38:00,51.4,35.0,29.70,WSW,249,5.0,12.0,54,0.00,,,0.00,weatherlink.com 1.10,2013-04-15 01:38:00,
2013-04-14 18:53:00,48.1,35.0,29.71,West,261,13.0,19.0,60,0.00,,,0.00,weatherlink.com 1.10,2013-04-15 01:53:00,
2013-04-14 19:08:00,46.9,34.0,29.71,WSW,256,16.0,21.0,62,0.00,,,0.00,weatherlink.com 1.10,2013-04-15 02:08:00,
2013-04-14 19:23:00,46.5,34.0,29.71,West,277,8.0,20.0,61,0.00,,,0.00,weatherlink.com 1.10,2013-04-15 02:23:00,
2013-04-14 19:38:00,46.0,33.0,29.71,WNW,284,13.0,21.0,61,0.00,,,0.00,weatherlink.com 1.10,2013-04-15 02:38:00,
2013-04-14 19:53:00,46.5,33.0,29.71,West,271,11.0,21.0,59,0.00,,,0.00,weatherlink.com 1.10,2013-04-15 02:53:00,
2013-04-14 20:08:00,46.7,32.0,29.72,West,268,7.0,19.0,58,0.00,,,0.00,weatherlink.com 1.10,2013-04-15 03:08:00,
2013-04-14 20:23:00,46.5,32.0,29.72,WNW,284,7.0,19.0,58,0.00,,,0.00,weatherlink.com 1.10,2013-04-15 03:23:00,
2013-04-14 20:38:00,46.7,32.0,29.72,WNW,284,11.0,23.0,57,0.00,,,0.00,weatherlink.com 1.10,2013-04-15 03:38:00,
2013-04-14 20:53:00,47.0,32.0,29.72,West,273,12.0,23.0,57,0.00,,,0.00,weatherlink.com 1.10,2013-04-15 03:53:00,
2013-04-14 21:08:00,47.0,32.0,29.72,NW,305,10.0,21.0,56,0.00,,,0.00,weatherlink.com 1.10,2013-04-15 04:08:00,
2013-04-14 21:24:00,47.0,32.0,29.73,WNW,301,6.0,18.0,57,0.00,,,0.00,weatherlink.com 1.10,2013-04-15 04:24:00,
2013-04-14 21:39:00,46.2,33.0,29.73,West,260,6.0,24.0,60,0.00,,,0.00,weatherlink.com 1.10,2013-04-15 04:39:00,
2013-04-14 21:54:00,46.1,34.0,29.73,West,262,12.0,25.0,62,0.00,,,0.00,weatherlink.com 1.10,2013-04-15 04:54:00,
2013-04-14 22:09:00,44.2,35.0,29.73,WNW,302,15.0,20.0,70,0.00,,,0.00,weatherlink.com 1.10,2013-04-15 05:09:00,
2013-04-14 22:24:00,42.2,35.0,29.73,West,279,7.0,17.0,76,0.00,,,0.00,weatherlink.com 1.10,2013-04-15 05:24:00,
2013-04-14 22:39:00,42.5,35.0,29.73,WNW,295,15.0,20.0,75,0.00,,,0.00,weatherlink.com 1.10,2013-04-15 05:39:00,
2013-04-14 22:54:00,44.7,34.0,29.73,WNW,283,13.0,20.0,67,0.00,,,0.00,weatherlink.com 1.10,2013-04-15 05:54:00,
2013-04-14 23:09:00,46.3,33.0,29.74,WNW,291,17.0,24.0,61,0.00,,,0.00,weatherlink.com 1.10,2013-04-15 06:09:00,
2013-04-14 23:24:00,46.0,33.0,29.74,WNW,288,14.0,22.0,62,0.00,,,0.00,weatherlink.com 1.10,2013-04-15 06:24:00,
2013-04-14 23:39:00,45.4,34.0,29.73,West,277,9.0,24.0,65,0.00,,,0.00,weatherlink.com 1.10,2013-04-15 06:39:00,
2013-04-14 23:54:00,45.6,34.0,29.73,WSW,254,14.0,22.0,65,0.00,,,0.00,weatherlink.com 1.10,2013-04-15 06:54:00,